Time;durP1;ratioP1;P1;durP2;ratioP2;P2;SDS_P1;SDS_P2;PMS_P1;PMS_P2;Temp;Humidity;BMP_temperature;BMP_pressure;BME280_temperature;BME280_humidity;BME280_pressure;Samples;Min_cycle;Max_cycle;Signal;HPM_P1;HPM_P2
2021/04/14 00:01:12;;;;;;;6.33;5.83;;;-0.20;99.90;;;0.51;72.30;99083.75;5212224;28;20212;-56
2021/04/14 00:03:45;;;;;;;6.43;6.03;;;-0.30;99.90;;;0.58;72.23;99075.31;5227714;28;20206;-57
2021/04/14 00:06:17;;;;;;;5.97;5.50;;;-0.20;99.90;;;0.57;72.63;99078.53;5226665;28;20284;-58
2021/04/14 00:08:49;;;;;;;6.00;5.60;;;-0.20;99.90;;;0.56;72.22;99090.22;5221712;28;20685;-56
2021/04/14 00:11:22;;;;;;;6.50;6.00;;;-0.20;99.90;;;0.55;72.73;99082.53;5227216;28;20219;-56
2021/04/14 00:13:54;;;;;;;5.83;5.33;;;-0.30;99.90;;;0.41;72.54;99081.81;5225257;28;20206;-55
2021/04/14 00:16:27;;;;;;;5.57;5.17;;;-0.40;99.90;;;0.53;72.17;99073.88;5227496;28;20229;-58
2021/04/14 00:19:00;;;;;;;5.73;5.23;;;-0.40;99.90;;;0.40;72.15;99074.06;5226602;28;20297;-59
2021/04/14 00:21:32;;;;;;;6.13;5.63;;;-0.40;99.90;;;0.36;72.94;99071.94;5227276;28;20243;-56
2021/04/14 00:24:05;;;;;;;5.80;5.33;;;-0.40;99.90;;;0.28;73.20;99071.03;5226790;28;20665;-57
2021/04/14 00:26:37;;;;;;;6.33;5.90;;;-0.50;99.90;;;0.25;73.13;99077.34;5223404;28;20207;-54
2021/04/14 00:29:11;;;;;;;5.90;5.50;;;-0.60;99.90;;;0.23;73.45;99074.66;5211128;28;20205;-58
2021/04/14 00:31:44;;;;;;;6.33;5.83;;;-0.70;99.90;;;0.27;73.54;99079.31;5225833;28;20217;-59
2021/04/14 00:34:20;;;;;;;6.23;5.83;;;-0.60;99.90;;;0.23;74.04;99069.63;5226689;28;20224;-57
2021/04/14 00:36:52;;;;;;;6.37;5.87;;;-0.60;99.90;;;0.22;73.82;99072.84;5226370;28;20225;-59
2021/04/14 00:39:25;;;;;;;6.87;6.40;;;-0.60;99.90;;;0.26;73.32;99071.59;5226900;28;20201;-58
2021/04/14 00:41:57;;;;;;;5.93;5.43;;;-0.60;99.90;;;0.22;74.22;99067.81;5221535;28;20213;-55
2021/04/14 00:44:30;;;;;;;6.63;6.10;;;-0.60;99.90;;;0.16;73.09;99067.13;5208961;28;20355;-55
2021/04/14 00:47:03;;;;;;;6.33;5.83;;;-0.60;99.90;;;0.13;73.03;99056.72;5226052;28;20621;-58
2021/04/14 00:49:35;;;;;;;6.07;5.67;;;-0.70;99.90;;;0.07;73.03;99059.41;5227002;28;20212;-56
2021/04/14 00:52:07;;;;;;;5.93;5.53;;;-0.80;99.90;;;0.12;74.47;99065.88;5226574;28;20631;-55
2021/04/14 00:54:39;;;;;;;6.17;5.80;;;-0.70;99.90;;;0.10;74.47;99049.72;5226719;28;20320;-57
2021/04/14 00:57:11;;;;;;;6.37;5.97;;;-0.70;99.90;;;0.11;73.45;99058.13;5225106;28;20578;-59
2021/04/14 00:59:44;;;;;;;6.40;5.90;;;-0.70;99.90;;;0.15;74.41;99063.72;5219197;28;20189;-55
2021/04/14 01:02:16;;;;;;;6.27;5.83;;;-0.60;99.90;;;0.17;72.84;99058.84;5226205;28;20227;-55
2021/04/14 01:04:48;;;;;;;5.60;5.20;;;-0.60;99.90;;;0.15;74.10;99062.81;5226403;28;20193;-55
2021/04/14 01:07:21;;;;;;;6.20;5.67;;;-0.60;99.90;;;0.14;73.02;99059.41;5226316;28;20207;-55
2021/04/14 01:09:53;;;;;;;6.83;6.23;;;-0.60;99.90;;;0.23;73.78;99054.56;5226112;28;20287;-59
2021/04/14 01:12:25;;;;;;;6.60;6.00;;;-0.60;99.90;;;0.19;74.08;99053.28;5222013;28;20223;-56
2021/04/14 01:14:58;;;;;;;5.93;5.53;;;-0.70;99.90;;;0.15;74.01;99050.25;5223873;28;20217;-58
2021/04/14 01:17:30;;;;;;;6.50;6.07;;;-0.70;99.90;;;0.05;73.60;99058.31;5225042;28;20293;-59
2021/04/14 01:20:05;;;;;;;6.30;5.73;;;-0.80;99.90;;;0.01;73.40;99055.28;5225629;28;20205;-56
2021/04/14 01:22:38;;;;;;;6.37;5.80;;;-0.80;99.90;;;0.06;74.17;99044.13;5225907;28;20212;-56
2021/04/14 01:25:12;;;;;;;6.90;6.40;;;-0.80;99.90;;;0.09;73.42;99047.03;5219306;28;20280;-56
2021/04/14 01:27:45;;;;;;;5.97;5.57;;;-0.80;99.90;;;0.06;74.07;99049.16;5225287;28;20595;-59
2021/04/14 01:30:21;;;;;;;6.73;6.23;;;-0.80;99.90;;;0.04;74.01;99043.97;5225275;28;20207;-58
2021/04/14 01:32:53;;;;;;;6.13;5.73;;;-0.80;99.90;;;-0.10;73.83;99042.34;5225594;28;20601;-58
2021/04/14 01:35:28;;;;;;;6.33;5.73;;;-0.90;99.90;;;-0.10;73.27;99042.34;5226053;28;20717;-59
2021/04/14 01:38:01;;;;;;;6.40;6.00;;;-1.00;99.90;;;-0.09;74.70;99048.28;5225264;28;20199;-58
2021/04/14 01:40:34;;;;;;;6.57;6.03;;;-0.90;99.90;;;-0.07;73.76;99045.22;5219094;28;20209;-56
2021/04/14 01:43:06;;;;;;;6.30;5.77;;;-0.90;99.90;;;-0.12;74.80;99048.81;5219271;28;20241;-58
2021/04/14 01:45:42;;;;;;;6.00;5.60;;;-1.00;99.90;;;-0.21;74.12;99045.22;5219897;28;20716;-54
2021/04/14 01:48:16;;;;;;;6.67;6.17;;;-1.00;99.90;;;-0.12;74.95;99043.78;5225376;28;20680;-57
2021/04/14 01:50:49;;;;;;;6.17;5.77;;;-0.90;99.90;;;-0.22;74.58;99038.41;5225432;28;20653;-60
2021/04/14 01:53:22;;;;;;;5.97;5.57;;;-1.00;99.90;;;-0.27;74.66;99036.97;5219585;28;20193;-57
2021/04/14 01:55:54;;;;;;;6.27;5.77;;;-1.10;99.90;;;-0.24;75.33;99044.88;5225454;28;20227;-59
2021/04/14 01:58:29;;;;;;;6.10;5.60;;;-1.00;99.90;;;-0.18;75.14;99038.03;5216566;28;20204;-55
2021/04/14 02:01:06;;;;;;;6.30;5.90;;;-1.00;99.90;;;-0.25;74.54;99041.47;5224445;28;20192;-58
2021/04/14 02:03:41;;;;;;;6.77;6.17;;;-1.10;99.90;;;-0.27;75.65;99031.94;5225820;28;20280;-58
2021/04/14 02:06:17;;;;;;;6.10;5.63;;;-1.00;99.90;;;-0.28;75.54;99032.69;5220440;28;20189;-58
2021/04/14 02:08:50;;;;;;;6.23;5.73;;;-1.10;99.90;;;-0.25;75.49;99026.41;5225631;28;20240;-58
2021/04/14 02:11:22;;;;;;;7.03;6.53;;;-1.00;99.90;;;-0.25;75.03;99030.53;5216368;28;20693;-57
2021/04/14 02:13:54;;;;;;;7.00;6.50;;;-1.10;99.90;;;-0.34;75.13;99029.47;5223680;28;20228;-59
2021/04/14 02:16:26;;;;;;;7.00;6.40;;;-1.10;99.90;;;-0.40;74.71;99026.19;5224078;28;20200;-58
2021/04/14 02:18:58;;;;;;;7.07;6.47;;;-1.10;99.90;;;-0.38;74.99;99032.31;5224443;28;20221;-56
2021/04/14 02:21:31;;;;;;;6.77;6.27;;;-1.10;99.90;;;-0.31;74.89;99029.81;5224987;28;20224;-60
2021/04/14 02:24:05;;;;;;;7.13;6.43;;;-1.10;99.90;;;-0.29;75.09;99039.28;5224905;28;20204;-59
2021/04/14 02:26:37;;;;;;;6.93;6.33;;;-1.10;99.90;;;-0.28;75.28;99031.06;5225514;28;20751;-58
2021/04/14 02:29:09;;;;;;;6.83;6.30;;;-1.10;99.90;;;-0.30;74.80;99021.56;5224644;28;20205;-60
2021/04/14 02:31:41;;;;;;;7.37;6.77;;;-1.10;99.90;;;-0.28;74.79;99031.06;5224608;28;20675;-59
2021/04/14 02:34:15;;;;;;;6.20;5.80;;;-1.10;99.90;;;-0.27;74.35;99026.94;5228466;28;20233;-59
2021/04/14 02:36:47;;;;;;;6.40;5.90;;;-1.20;99.90;;;-0.30;74.93;99024.94;5227075;28;20203;-54
2021/04/14 02:39:20;;;;;;;6.63;6.03;;;-1.20;99.90;;;-0.36;75.09;99026.75;5229196;28;20198;-59
2021/04/14 02:41:53;;;;;;;6.87;6.37;;;-1.20;99.90;;;-0.37;74.23;99024.03;5229205;28;20308;-56
2021/04/14 02:44:26;;;;;;;6.27;5.77;;;-1.20;99.90;;;-0.35;75.68;99022.63;5228263;28;20198;-59
2021/04/14 02:46:58;;;;;;;5.67;5.17;;;-1.20;99.90;;;-0.32;74.91;99015.44;5228280;28;20263;-58
2021/04/14 02:49:31;;;;;;;6.73;6.17;;;-1.20;99.90;;;-0.42;74.24;99005.06;5228662;28;20228;-54
2021/04/14 02:52:05;;;;;;;6.40;5.83;;;-1.20;99.90;;;-0.40;74.65;99018.66;5228703;28;20311;-57
2021/04/14 02:54:37;;;;;;;6.67;6.17;;;-1.20;99.90;;;-0.50;75.83;99017.59;5228496;28;20257;-57
2021/04/14 02:57:09;;;;;;;6.83;6.33;;;-1.30;99.90;;;-0.55;75.89;99015.25;5228305;28;20201;-57
2021/04/14 02:59:41;;;;;;;5.97;5.47;;;-1.30;99.90;;;-0.57;76.37;99017.59;5227823;28;20204;-56
2021/04/14 03:02:14;;;;;;;7.10;6.60;;;-1.40;99.90;;;-0.60;75.83;99014.72;5228787;28;20217;-55
2021/04/14 03:04:46;;;;;;;6.83;6.33;;;-1.40;99.90;;;-0.64;76.48;99017.56;5228121;28;20730;-58
2021/04/14 03:07:18;;;;;;;7.20;6.60;;;-1.50;99.90;;;-0.62;76.11;99016.16;5228160;28;20201;-59
2021/04/14 03:09:51;;;;;;;7.27;6.57;;;-1.40;99.90;;;-0.62;76.35;99016.16;5228345;28;20205;-58
2021/04/14 03:12:23;;;;;;;7.47;6.87;;;-1.40;99.90;;;-0.69;75.84;99016.13;5224328;28;20308;-58
2021/04/14 03:14:55;;;;;;;7.37;6.77;;;-1.50;99.90;;;-0.80;76.81;99013.94;5226672;28;20218;-56
2021/04/14 03:17:27;;;;;;;8.60;7.63;;;-1.50;99.90;;;-0.68;76.12;99013.81;5227917;28;20200;-57
2021/04/14 03:20:00;;;;;;;7.37;6.77;;;-1.50;99.90;;;-0.79;75.77;99015.75;5227963;28;20216;-57
2021/04/14 03:22:32;;;;;;;7.70;7.00;;;-1.50;99.90;;;-0.85;76.83;99002.50;5228382;28;20220;-55
2021/04/14 03:25:07;;;;;;;7.40;6.80;;;-1.50;99.90;;;-0.83;76.53;99008.56;5228465;28;20193;-57
2021/04/14 03:27:40;;;;;;;7.60;6.80;;;-1.50;99.90;;;-0.74;76.34;99004.66;5216464;28;20280;-59
2021/04/14 03:30:14;;;;;;;7.50;7.00;;;-1.50;99.90;;;-0.70;76.37;99001.78;5227452;28;20197;-57
2021/04/14 03:32:46;;;;;;;7.73;7.03;;;-1.50;99.90;;;-0.64;76.56;99002.50;5227928;28;20229;-59
2021/04/14 03:35:22;;;;;;;7.43;6.83;;;-1.40;99.90;;;-0.68;76.70;99001.25;5228038;28;20221;-59
2021/04/14 03:37:55;;;;;;;8.67;7.80;;;-1.50;99.90;;;-0.66;76.32;99003.03;5227560;28;20215;-57
2021/04/14 03:40:28;;;;;;;7.83;7.20;;;-1.50;99.90;;;-0.81;76.86;98998.00;5227853;28;20223;-58
2021/04/14 03:43:01;;;;;;;8.13;7.50;;;-1.60;99.90;;;-0.77;76.97;98992.66;5225035;28;20209;-54
2021/04/14 03:45:38;;;;;;;8.00;7.43;;;-1.60;99.90;;;-0.78;75.37;98988.31;5217098;28;20192;-60
2021/04/14 03:48:11;;;;;;;7.23;6.67;;;-1.50;99.90;;;-0.78;75.91;98987.44;5219228;28;20638;-58
2021/04/14 03:50:43;;;;;;;7.27;6.70;;;-1.50;99.90;;;-0.81;76.18;98992.09;5228239;28;20284;-57
2021/04/14 03:53:23;;;;;;;7.53;7.00;;;-1.50;99.90;;;-0.81;77.20;98997.09;5226837;28;20223;-59
2021/04/14 03:55:59;;;;;;;7.53;6.90;;;-1.60;99.90;;;-0.79;76.24;98995.69;5213156;28;20224;-59
2021/04/14 03:58:33;;;;;;;8.27;7.50;;;-1.50;99.90;;;-0.77;77.45;98992.66;5227256;28;20195;-59
2021/04/14 04:01:09;;;;;;;7.50;6.80;;;-1.50;99.90;;;-0.73;77.12;98986.38;5227069;28;20571;-57
2021/04/14 04:03:41;;;;;;;7.20;6.53;;;-1.50;99.90;;;-0.83;76.06;98983.47;5227379;28;20550;-57
2021/04/14 04:06:13;;;;;;;7.00;6.50;;;-1.60;99.90;;;-0.83;75.26;98978.44;5227630;28;20207;-56
2021/04/14 04:08:46;;;;;;;7.77;7.07;;;-1.60;99.90;;;-0.90;76.58;98984.38;5227024;28;20215;-57
2021/04/14 04:11:21;;;;;;;7.60;7.10;;;-1.60;99.90;;;-0.82;76.07;98988.69;5226398;28;20217;-59
2021/04/14 04:13:55;;;;;;;7.10;6.47;;;-1.60;99.90;;;-0.78;75.69;98987.44;5226998;28;20227;-58
2021/04/14 04:16:27;;;;;;;6.93;6.43;;;-1.60;99.90;;;-0.80;75.70;98986.34;5218702;28;20753;-59
2021/04/14 04:19:00;;;;;;;6.80;6.27;;;-1.60;99.90;;;-0.85;76.84;98985.81;5227239;28;20566;-55
2021/04/14 04:21:32;;;;;;;6.50;6.00;;;-1.60;99.90;;;-0.83;76.62;98988.50;5227076;28;20312;-58
2021/04/14 04:24:06;;;;;;;7.57;6.60;;;-1.60;99.90;;;-0.79;76.39;98984.03;5225981;28;20649;-58
2021/04/14 04:26:39;;;;;;;7.20;6.57;;;-1.60;99.90;;;-0.81;75.65;98992.09;5219988;28;20221;-58
2021/04/14 04:29:11;;;;;;;6.60;6.03;;;-1.60;99.90;;;-0.83;76.54;98988.50;5220157;28;20205;-56
2021/04/14 04:31:43;;;;;;;6.60;6.10;;;-1.60;99.90;;;-0.87;75.55;98986.34;5227304;28;20228;-54
2021/04/14 04:34:15;;;;;;;7.33;6.53;;;-1.60;99.90;;;-0.82;75.57;98996.22;5226574;28;20193;-57
2021/04/14 04:36:50;;;;;;;6.67;6.17;;;-1.60;99.90;;;-0.88;76.42;98984.56;5215636;28;20217;-54
2021/04/14 04:39:22;;;;;;;6.87;6.27;;;-1.70;99.90;;;-0.92;76.20;98989.22;5211819;28;20713;-55
2021/04/14 04:41:55;;;;;;;8.27;7.57;;;-1.70;99.90;;;-0.97;75.69;98990.28;5215937;28;20221;-56
2021/04/14 04:44:27;;;;;;;8.77;8.07;;;-1.80;99.90;;;-0.96;76.99;98992.06;5216638;28;20227;-57
2021/04/14 04:46:59;;;;;;;7.67;6.87;;;-1.80;99.90;;;-0.87;76.04;98991.38;5225603;28;20229;-57
2021/04/14 04:49:31;;;;;;;7.60;7.00;;;-1.70;99.90;;;-0.86;75.60;98993.16;5221675;28;20232;-58
2021/04/14 04:52:04;;;;;;;8.30;7.70;;;-1.70;99.90;;;-0.88;76.07;98994.59;5225290;28;20223;-55
2021/04/14 04:54:37;;;;;;;8.17;7.37;;;-1.80;99.90;;;-0.85;76.53;99000.88;5220339;28;20205;-54
2021/04/14 04:57:10;;;;;;;7.87;7.17;;;-1.70;99.90;;;-0.91;77.20;99001.03;5221585;28;20617;-57
2021/04/14 04:59:42;;;;;;;8.13;7.43;;;-1.70;99.90;;;-0.84;76.76;99000.13;5225549;28;20201;-59
2021/04/14 05:02:14;;;;;;;8.13;7.40;;;-1.70;99.90;;;-0.80;75.84;99007.34;5226167;28;20310;-55
2021/04/14 05:04:46;;;;;;;8.40;7.50;;;-1.70;99.90;;;-0.88;76.17;99008.03;5225957;28;20201;-53
2021/04/14 05:07:18;;;;;;;8.20;7.40;;;-1.70;99.90;;;-0.86;76.44;99013.22;5225117;28;20704;-59
2021/04/14 05:09:51;;;;;;;7.80;7.20;;;-1.80;99.90;;;-0.85;75.52;99010.00;5225557;28;20247;-58
2021/04/14 05:12:24;;;;;;;8.03;7.20;;;-1.70;99.90;;;-0.78;76.50;99015.03;5225804;28;20707;-61
2021/04/14 05:14:56;;;;;;;8.33;7.50;;;-1.60;99.90;;;-0.74;76.00;99014.69;5221217;28;20272;-57
2021/04/14 05:17:28;;;;;;;8.03;7.33;;;-1.60;99.90;;;-0.70;75.76;99020.25;5223705;28;20982;-58
2021/04/14 05:20:00;;;;;;;8.30;7.60;;;-1.60;99.90;;;-0.58;75.86;99010.75;5224461;28;20280;-59
2021/04/14 05:22:33;;;;;;;7.73;7.13;;;-1.40;99.90;;;-0.45;76.23;99020.66;5225482;28;20300;-57
2021/04/14 05:25:09;;;;;;;7.73;7.13;;;-1.40;99.90;;;-0.21;74.56;99029.25;5225668;28;20199;-57
2021/04/14 05:27:43;;;;;;;9.83;8.07;;;-1.30;99.90;;;0.13;73.81;99024.03;5222710;28;20193;-59
2021/04/14 05:30:16;;;;;;;7.97;7.37;;;-1.00;99.90;;;0.48;72.06;99025.56;5218712;28;20209;-59
2021/04/14 05:32:50;;;;;;;8.60;7.90;;;-0.90;99.90;;;0.57;71.56;99023.19;5221813;28;20229;-58
2021/04/14 05:35:23;;;;;;;8.80;7.40;;;-0.90;99.90;;;1.00;70.42;99028.06;5225431;28;20253;-58
2021/04/14 05:37:55;;;;;;;8.63;7.90;;;-0.60;99.90;;;1.37;68.90;99024.63;5224972;28;20204;-58
2021/04/14 05:40:27;;;;;;;8.13;7.37;;;-0.40;99.90;;;1.55;68.43;99029.19;5224246;28;20676;-59
2021/04/14 05:43:00;;;;;;;8.27;7.57;;;-0.20;99.90;;;1.85;67.89;99023.19;5222884;28;20227;-60
2021/04/14 05:45:32;;;;;;;7.07;6.50;;;0.10;99.90;;;2.07;66.54;99019.75;5222821;28;20230;-59
2021/04/14 05:48:05;;;;;;;8.23;7.37;;;0.40;99.90;;;2.50;65.68;99026.91;5223319;28;20194;-60
2021/04/14 05:50:37;;;;;;;7.90;7.20;;;0.70;99.90;;;2.92;63.77;99027.16;5217185;28;20302;-60
2021/04/14 05:53:10;;;;;;;8.07;7.37;;;1.20;99.90;;;3.20;62.87;99024.97;5225776;28;20703;-60
2021/04/14 05:55:42;;;;;;;7.93;7.23;;;1.40;99.90;;;3.50;61.86;99023.09;5224644;28;20220;-60
2021/04/14 05:58:15;;;;;;;7.60;7.00;;;1.50;99.90;;;3.64;60.81;99016.03;5222655;28;20207;-59
2021/04/14 06:00:47;;;;;;;7.53;6.67;;;1.80;99.90;;;4.04;59.03;99019.34;5211171;28;20280;-59
2021/04/14 06:03:20;;;;;;;7.70;7.10;;;2.10;99.90;;;4.08;59.03;99030.66;5204837;28;20253;-61
2021/04/14 06:05:53;;;;;;;8.40;7.70;;;2.00;99.90;;;4.62;58.56;99030.94;5224175;28;20629;-58
2021/04/14 06:08:26;;;;;;;7.90;7.20;;;2.20;99.90;;;4.87;56.75;99019.97;5214651;28;20258;-57
2021/04/14 06:11:00;;;;;;;9.10;8.40;;;2.30;99.90;;;5.27;56.11;99031.44;5224117;28;20284;-58
2021/04/14 06:13:34;;;;;;;8.97;8.17;;;2.60;99.90;;;5.70;54.80;99022.84;5217623;28;20679;-61
2021/04/14 06:16:09;;;;;;;8.37;7.67;;;2.80;99.90;;;6.15;53.59;99019.41;5219203;28;20220;-57
2021/04/14 06:18:41;;;;;;;8.83;8.03;;;3.20;99.90;;;6.40;51.85;99022.56;5224096;28;20682;-58
2021/04/14 06:21:16;;;;;;;8.27;7.57;;;3.40;99.90;;;6.59;51.67;99025.16;5223082;28;21020;-59
2021/04/14 06:23:48;;;;;;;8.00;7.20;;;3.50;99.90;;;7.15;50.89;99019.19;5228042;28;20574;-57
2021/04/14 06:26:28;;;;;;;8.47;7.77;;;4.00;99.90;;;7.19;49.85;99024.69;5228810;28;20185;-58
2021/04/14 06:29:02;;;;;;;7.83;7.23;;;4.40;99.90;;;7.55;49.53;99020.16;5224394;28;20193;-58
2021/04/14 06:31:40;;;;;;;8.60;8.00;;;4.50;99.60;;;7.70;48.66;99015.50;5228058;28;20224;-59
2021/04/14 06:34:19;;;;;;;8.87;8.07;;;4.70;98.80;;;7.77;47.97;99013.63;5227907;28;20240;-59
2021/04/14 06:36:57;;;;;;;8.90;8.00;;;4.60;99.00;;;8.00;47.64;99018.16;5228224;28;20213;-60
2021/04/14 06:39:30;;;;;;;9.20;8.40;;;4.90;98.30;;;8.18;47.74;99020.47;5229134;28;20201;-57
2021/04/14 06:42:29;;;;;;;8.97;8.07;;;5.00;98.60;;;8.55;47.22;99027.06;5226162;28;20213;-57
2021/04/14 06:45:11;;;;;;;9.70;8.87;;;5.50;97.90;;;8.54;46.34;99021.06;5228154;28;20204;-57
2021/04/14 06:48:00;;;;;;;9.80;9.03;;;5.50;97.30;;;8.73;45.81;99027.72;5225398;28;20204;-56
2021/04/14 06:50:39;;;;;;;10.13;9.23;;;5.50;97.00;;;8.81;46.15;99021.56;5227453;28;20197;-56
2021/04/14 06:53:27;;;;;;;10.03;9.13;;;5.50;97.30;;;8.83;46.71;99022.59;5219287;28;20220;-59
2021/04/14 06:56:03;;;;;;;10.70;9.60;;;5.90;97.00;;;9.11;45.61;99013.00;5225494;28;20313;-59
2021/04/14 06:58:42;;;;;;;11.63;9.47;;;5.70;96.20;;;9.12;45.19;99024.09;5226836;28;20193;-59
2021/04/14 07:01:21;;;;;;;10.33;9.27;;;6.00;96.20;;;9.45;44.65;99006.41;5210590;28;20320;-58
2021/04/14 07:03:58;;;;;;;9.93;9.03;;;6.20;95.90;;;9.46;43.16;99014.94;5226759;28;20201;-59
2021/04/14 07:06:34;;;;;;;10.23;9.17;;;6.40;94.60;;;9.61;43.76;98998.28;5228553;28;20196;-57
2021/04/14 07:09:16;;;;;;;9.63;8.77;;;6.00;95.20;;;9.78;43.50;99003.84;5228504;28;20296;-59
2021/04/14 07:11:49;;;;;;;9.60;8.70;;;6.20;95.00;;;10.27;42.05;99000.94;5227525;28;20316;-58
2021/04/14 07:14:22;;;;;;;8.17;7.47;;;6.50;94.80;;;10.45;42.28;99004.00;5224897;28;20197;-58
2021/04/14 07:17:17;;;;;;;8.10;7.23;;;6.90;94.40;;;10.70;40.81;98999.06;5215759;28;20586;-58
2021/04/14 07:20:23;;;;;;;7.60;7.00;;;7.10;93.40;;;11.12;40.87;98995.31;5217432;28;20236;-58
2021/04/14 07:23:19;;;;;;;6.77;6.07;;;7.40;92.80;;;11.37;39.56;98997.13;5214313;28;20309;-57
2021/04/14 07:25:59;;;;;;;6.07;5.50;;;7.70;92.30;;;11.82;39.18;98989.25;5224085;28;20187;-59
2021/04/14 07:28:42;;;;;;;6.22;5.63;;;8.10;91.60;;;11.99;39.39;98989.56;5223400;28;20203;-58
2021/04/14 07:31:23;;;;;;;7.07;5.82;;;8.30;91.90;;;12.14;38.62;98994.09;5228000;28;20234;-59
2021/04/14 07:34:17;;;;;;;6.78;6.28;;;8.30;91.30;;;11.91;39.15;98991.63;5228051;28;20198;-58
2021/04/14 07:36:58;;;;;;;6.25;5.65;;;8.20;91.70;;;11.70;40.27;98984.16;5222748;28;20594;-59
2021/04/14 07:39:36;;;;;;;5.90;5.43;;;8.70;91.30;;;11.46;40.66;98977.28;5227355;28;20203;-61
2021/04/14 07:42:23;;;;;;;6.35;5.75;;;8.90;90.90;;;11.10;41.15;98986.63;5225793;28;20220;-58
2021/04/14 07:45:10;;;;;;;6.18;5.65;;;8.90;90.80;;;11.36;41.19;98978.31;5224416;28;20204;-57
2021/04/14 07:47:48;;;;;;;6.65;5.97;;;8.90;90.70;;;11.33;40.66;98979.75;5227496;28;20235;-57
2021/04/14 07:50:29;;;;;;;6.13;5.38;;;8.60;90.40;;;11.11;41.57;98978.19;5227052;28;20223;-55
2021/04/14 07:53:01;;;;;;;5.85;5.30;;;8.50;90.90;;;10.88;42.19;98973.06;5220914;28;20777;-56
2021/04/14 07:55:34;;;;;;;6.25;5.75;;;8.90;90.80;;;10.98;41.98;98978.97;5214280;28;20312;-57
2021/04/14 07:58:10;;;;;;;5.95;5.32;;;8.90;90.60;;;11.24;41.34;98975.72;5219242;28;20197;-59
2021/04/14 08:00:45;;;;;;;6.57;5.97;;;9.00;91.00;;;11.30;41.21;98970.16;5214543;28;20229;-59
2021/04/14 08:03:26;;;;;;;5.50;5.00;;;9.10;90.70;;;11.39;42.00;98970.84;5220666;28;20251;-59
2021/04/14 08:06:12;;;;;;;5.93;5.32;;;9.70;90.30;;;11.56;41.58;98977.19;5208175;28;20198;-59
2021/04/14 08:08:48;;;;;;;5.68;5.18;;;9.90;89.60;;;11.55;41.52;98971.94;5206644;28;20225;-59
2021/04/14 08:11:30;;;;;;;5.07;4.57;;;10.00;89.00;;;11.80;41.66;98969.44;5210980;28;20247;-60
2021/04/14 08:14:09;;;;;;;5.50;4.93;;;10.10;89.70;;;11.79;41.51;98972.78;5215635;28;20202;-60
2021/04/14 08:16:47;;;;;;;5.35;4.95;;;10.20;90.00;;;11.93;40.49;98977.22;5222761;28;20228;-60
2021/04/14 08:19:24;;;;;;;6.00;5.10;;;10.40;87.80;;;12.07;39.69;98976.50;5227402;28;20216;-60
2021/04/14 08:22:00;;;;;;;5.18;4.43;;;10.60;86.30;;;12.08;40.08;98970.63;5227160;28;20614;-59
2021/04/14 08:24:40;;;;;;;5.40;4.88;;;10.90;85.60;;;12.08;40.37;98960.38;5226795;28;20189;-60
2021/04/14 08:27:18;;;;;;;5.22;4.82;;;10.70;86.00;;;12.18;40.73;98955.06;5224249;28;20220;-60
2021/04/14 08:30:04;;;;;;;4.82;4.32;;;10.60;87.90;;;12.30;39.64;98964.38;5210249;28;20201;-60
2021/04/14 08:32:41;;;;;;;4.90;4.50;;;10.70;85.60;;;12.25;40.18;98951.25;5209071;28;20781;-60
2021/04/14 08:35:26;;;;;;;5.53;5.03;;;10.90;85.80;;;12.02;40.46;98957.38;5221340;28;20193;-58
2021/04/14 08:38:03;;;;;;;5.10;4.63;;;10.80;86.30;;;12.12;40.02;98957.22;5218905;28;20193;-60
2021/04/14 08:40:46;;;;;;;4.80;4.40;;;11.00;84.70;;;12.27;39.42;98949.69;5224106;28;20212;-58
2021/04/14 08:43:26;;;;;;;4.43;4.03;;;11.30;82.80;;;12.42;38.39;98951.50;5209641;28;20226;-62
2021/04/14 08:46:18;;;;;;;4.32;3.90;;;11.60;81.20;;;12.30;38.54;98949.00;5225097;28;20197;-60
2021/04/14 08:48:54;;;;;;;4.38;3.97;;;11.40;81.40;;;12.20;39.01;98946.59;5226629;28;20239;-60
2021/04/14 08:51:30;;;;;;;5.07;3.60;;;10.90;82.70;;;12.30;38.82;98943.88;5226352;28;20229;-60
2021/04/14 08:54:04;;;;;;;3.63;3.33;;;11.20;82.70;;;12.33;39.18;98941.50;5221405;28;20209;-60
2021/04/14 08:56:37;;;;;;;4.82;3.33;;;11.30;81.90;;;12.56;36.41;98932.78;5221012;28;20314;-57
2021/04/14 08:59:11;;;;;;;3.58;3.28;;;11.60;78.10;;;12.35;38.56;98933.13;5223493;28;20275;-60
2021/04/14 09:01:44;;;;;;;3.55;3.22;;;11.30;81.00;;;12.78;38.30;98927.41;5225747;28;20219;-59
2021/04/14 09:04:17;;;;;;;4.18;3.40;;;11.80;80.90;;;13.12;36.65;98920.22;5225847;28;20200;-58
2021/04/14 09:06:52;;;;;;;3.28;2.97;;;12.00;79.20;;;12.91;36.35;98917.16;5221286;28;20648;-60
2021/04/14 09:09:28;;;;;;;3.30;3.00;;;11.80;78.00;;;12.58;35.32;98916.72;5225923;28;20629;-60
2021/04/14 09:12:06;;;;;;;3.50;3.20;;;11.40;75.90;;;12.22;35.56;98925.44;5221259;28;20282;-59
2021/04/14 09:14:39;;;;;;;3.38;3.17;;;11.00;76.30;;;12.00;36.34;98917.94;5221726;28;20256;-60
2021/04/14 09:17:22;;;;;;;3.85;3.47;;;10.80;77.70;;;11.59;36.23;98910.81;5220056;28;20225;-59
2021/04/14 09:19:55;;;;;;;3.75;3.13;;;10.30;76.90;;;11.53;37.11;98910.38;5224181;28;20390;-60
2021/04/14 09:22:29;;;;;;;3.53;3.22;;;10.10;79.30;;;11.15;37.65;98908.53;5224924;28;20220;-59
2021/04/14 09:25:19;;;;;;;3.55;3.25;;;9.70;78.60;;;10.81;36.50;98911.22;5225187;28;20200;-59
2021/04/14 09:27:52;;;;;;;4.18;3.33;;;9.50;78.10;;;10.68;36.47;98907.69;5215951;28;20261;-60
2021/04/14 09:30:37;;;;;;;3.92;3.53;;;9.20;76.50;;;10.35;36.84;98902.72;5224790;28;20620;-59
2021/04/14 09:33:19;;;;;;;3.58;3.33;;;9.20;76.90;;;10.75;37.37;98899.66;5225013;28;20731;-61
2021/04/14 09:36:04;;;;;;;3.67;3.47;;;9.70;79.30;;;11.43;36.70;98902.84;5222813;28;20266;-61
2021/04/14 09:38:49;;;;;;;3.10;2.80;;;10.40;76.50;;;11.65;34.34;98888.19;5208896;28;20197;-61
2021/04/14 09:41:36;;;;;;;3.50;3.20;;;10.60;72.50;;;11.42;34.67;98901.06;5225243;28;20217;-60
2021/04/14 09:44:17;;;;;;;3.50;3.20;;;10.30;73.40;;;11.08;33.92;98896.09;5219123;28;20557;-61
2021/04/14 09:47:17;;;;;;;3.40;3.10;;;9.90;72.80;;;10.90;35.73;98898.25;5223860;28;20243;-61
2021/04/14 09:49:52;;;;;;;3.80;3.40;;;9.70;75.50;;;10.66;37.29;98899.88;5219583;28;20290;-60
2021/04/14 09:52:29;;;;;;;3.85;3.40;;;9.30;77.20;;;10.29;37.75;98897.16;5218399;28;20266;-60
2021/04/14 09:55:13;;;;;;;3.47;3.28;;;9.20;78.60;;;10.09;39.59;98902.41;5217874;28;20201;-60
2021/04/14 09:57:50;;;;;;;4.33;3.37;;;9.00;79.80;;;10.06;40.38;98891.94;5222165;28;20278;-58
2021/04/14 10:00:27;;;;;;;3.63;3.30;;;8.70;82.00;;;10.08;40.42;98890.41;5213215;28;20278;-60
2021/04/14 10:03:08;;;;;;;3.37;3.13;;;8.70;81.90;;;9.99;38.44;98899.94;5211957;28;20217;-60
2021/04/14 10:05:41;;;;;;;4.10;3.13;;;8.80;78.70;;;9.90;37.76;98892.44;5220352;28;20704;-60
2021/04/14 10:08:16;;;;;;;3.87;3.57;;;8.80;77.70;;;10.03;37.74;98896.81;5215580;28;20191;-60
2021/04/14 10:10:50;;;;;;;3.83;3.43;;;8.70;78.90;;;10.10;38.75;98888.84;5208028;28;20303;-60
2021/04/14 10:13:32;;;;;;;3.80;3.33;;;8.90;78.20;;;10.17;38.24;98880.88;5213744;28;20211;-60
2021/04/14 10:16:04;;;;;;;3.17;2.97;;;9.10;77.50;;;10.09;38.38;98880.28;5216204;28;20224;-60
2021/04/14 10:18:41;;;;;;;3.73;3.43;;;9.00;77.40;;;10.21;37.09;98887.09;5224910;28;20288;-60
2021/04/14 10:21:18;;;;;;;3.17;2.97;;;8.80;75.70;;;10.22;36.59;98887.22;5212530;28;20228;-60
2021/04/14 10:23:56;;;;;;;3.40;3.20;;;8.80;75.70;;;10.21;35.07;98877.75;5221192;28;20574;-59
2021/04/14 10:26:30;;;;;;;3.60;3.30;;;9.00;73.50;;;10.14;35.50;98878.09;5225014;28;20276;-60
2021/04/14 10:29:09;;;;;;;6.63;3.13;;;8.90;73.30;;;10.32;35.63;98869.28;5221255;28;20260;-59
2021/04/14 10:31:42;;;;;;;5.10;3.70;;;9.00;74.40;;;10.46;36.09;98870.28;5222494;28;20221;-58
2021/04/14 10:34:27;;;;;;;4.70;3.40;;;9.30;75.60;;;10.59;35.65;98867.00;5224655;28;20284;-60
2021/04/14 10:37:12;;;;;;;4.07;3.78;;;9.20;74.90;;;10.79;34.17;98865.88;5214113;28;20225;-59
2021/04/14 10:39:45;;;;;;;4.27;3.73;;;9.40;72.30;;;10.68;34.41;98861.66;5224145;28;20753;-60
2021/04/14 10:42:21;;;;;;;4.27;3.87;;;9.30;73.00;;;10.47;34.89;98860.94;5223045;28;20300;-60
2021/04/14 10:45:04;;;;;;;4.03;3.60;;;9.10;74.10;;;10.58;35.46;98860.97;5224615;28;20228;-60
2021/04/14 10:47:40;;;;;;;4.20;3.80;;;9.10;74.20;;;10.67;35.25;98858.19;5224816;28;20201;-60
2021/04/14 10:50:20;;;;;;;4.03;3.63;;;9.40;73.90;;;10.60;36.24;98863.63;5221130;28;20212;-60
2021/04/14 10:53:01;;;;;;;3.78;3.47;;;9.20;74.60;;;10.04;33.73;98862.84;5225374;28;20231;-60
2021/04/14 10:55:36;;;;;;;3.77;3.47;;;9.00;70.90;;;9.86;35.11;98863.22;5226583;28;20278;-60
2021/04/14 10:58:16;;;;;;;3.73;3.50;;;8.80;72.90;;;9.98;36.20;98864.94;5222222;28;20691;-59